sensor_id;sensor_type;location;lat;lon;timestamp;pressure;altitude;pressure_sealevel;temperature;humidity
56414;BME280;42318;48.452;19.526;2023-05-03T00:07:29;98609.13;;;20.92;51.25
56414;BME280;42318;48.452;19.526;2023-05-03T00:15:00;98606.66;;;20.90;51.35
56414;BME280;42318;48.452;19.526;2023-05-03T00:22:31;98600.41;;;20.90;51.42
56414;BME280;42318;48.452;19.526;2023-05-03T00:30:02;98588.44;;;20.91;51.17
56414;BME280;42318;48.452;19.526;2023-05-03T00:37:33;98593.31;;;20.89;51.30
56414;BME280;42318;48.452;19.526;2023-05-03T00:45:04;98590.22;;;20.80;51.22
56414;BME280;42318;48.452;19.526;2023-05-03T00:52:37;98588.81;;;20.78;51.22
56414;BME280;42318;48.452;19.526;2023-05-03T01:00:08;98595.03;;;20.73;51.27
56414;BME280;42318;48.452;19.526;2023-05-03T01:23:30;98607.78;;;20.67;51.27
56414;BME280;42318;48.452;19.526;2023-05-03T01:31:02;98611.03;;;20.64;51.23
56414;BME280;42318;48.452;19.526;2023-05-03T01:38:35;98618.63;;;20.62;51.07
56414;BME280;42318;48.452;19.526;2023-05-03T01:46:07;98626.81;;;20.62;51.17
56414;BME280;42318;48.452;19.526;2023-05-03T01:53:37;98644.47;;;20.60;51.34
56414;BME280;42318;48.452;19.526;2023-05-03T02:01:08;98644.72;;;20.58;51.39
56414;BME280;42318;48.452;19.526;2023-05-03T02:08:39;98635.16;;;20.56;51.21
56414;BME280;42318;48.452;19.526;2023-05-03T02:16:10;98642.50;;;20.55;51.37
56414;BME280;42318;48.452;19.526;2023-05-03T02:23:41;98634.59;;;20.54;51.22
56414;BME280;42318;48.452;19.526;2023-05-03T02:31:11;98641.69;;;20.55;51.21
56414;BME280;42318;48.452;19.526;2023-05-03T02:38:46;98637.59;;;20.52;51.33
56414;BME280;42318;48.452;19.526;2023-05-03T02:46:17;98630.25;;;20.53;51.43
56414;BME280;42318;48.452;19.526;2023-05-03T02:53:47;98639.22;;;20.53;51.42
56414;BME280;42318;48.452;19.526;2023-05-03T03:01:18;98643.28;;;20.51;51.22
56414;BME280;42318;48.452;19.526;2023-05-03T03:08:49;98640.31;;;20.52;51.49
56414;BME280;42318;48.452;19.526;2023-05-03T03:16:20;98647.13;;;20.55;51.38
56414;BME280;42318;48.452;19.526;2023-05-03T03:23:50;98656.38;;;20.54;51.42
56414;BME280;42318;48.452;19.526;2023-05-03T03:31:21;98670.25;;;20.52;51.23
56414;BME280;42318;48.452;19.526;2023-05-03T03:38:53;98693.91;;;20.52;51.13
56414;BME280;42318;48.452;19.526;2023-05-03T03:46:23;98698.81;;;20.50;51.39
56414;BME280;42318;48.452;19.526;2023-05-03T03:53:54;98703.94;;;20.46;51.49
56414;BME280;42318;48.452;19.526;2023-05-03T04:01:25;98714.81;;;20.46;51.29
56414;BME280;42318;48.452;19.526;2023-05-03T04:08:56;98713.69;;;20.42;51.64
56414;BME280;42318;48.452;19.526;2023-05-03T04:16:27;98719.19;;;20.47;51.51
56414;BME280;42318;48.452;19.526;2023-05-03T04:23:58;98723.81;;;20.47;51.27
56414;BME280;42318;48.452;19.526;2023-05-03T04:31:29;98738.25;;;20.47;51.40
56414;BME280;42318;48.452;19.526;2023-05-03T04:39:00;98748.88;;;20.49;51.56
56414;BME280;42318;48.452;19.526;2023-05-03T04:46:31;98729.00;;;20.48;51.31
56414;BME280;42318;48.452;19.526;2023-05-03T04:54:02;98746.16;;;20.49;51.57
56414;BME280;42318;48.452;19.526;2023-05-03T05:01:32;98755.97;;;20.50;51.51
56414;BME280;42318;48.452;19.526;2023-05-03T05:09:05;98747.47;;;20.46;51.28
56414;BME280;42318;48.452;19.526;2023-05-03T05:16:37;98746.41;;;20.47;51.50
56414;BME280;42318;48.452;19.526;2023-05-03T05:24:07;98740.13;;;20.47;51.64
56414;BME280;42318;48.452;19.526;2023-05-03T05:31:38;98742.03;;;20.46;51.37
56414;BME280;42318;48.452;19.526;2023-05-03T05:39:09;98739.56;;;20.45;51.34
56414;BME280;42318;48.452;19.526;2023-05-03T05:46:40;98746.66;;;20.46;51.29
56414;BME280;42318;48.452;19.526;2023-05-03T05:54:11;98741.22;;;20.46;51.35
56414;BME280;42318;48.452;19.526;2023-05-03T06:01:42;98737.66;;;20.45;51.56
56414;BME280;42318;48.452;19.526;2023-05-03T06:09:15;98744.50;;;20.48;51.77
56414;BME280;42318;48.452;19.526;2023-05-03T06:16:46;98738.25;;;20.47;51.31
56414;BME280;42318;48.452;19.526;2023-05-03T06:24:17;98734.69;;;20.47;51.55
56414;BME280;42318;48.452;19.526;2023-05-03T06:31:51;98736.59;;;20.46;51.63
56414;BME280;42318;48.452;19.526;2023-05-03T06:39:21;98732.78;;;20.47;51.88
56414;BME280;42318;48.452;19.526;2023-05-03T06:46:52;98737.16;;;20.48;52.11
56414;BME280;42318;48.452;19.526;2023-05-03T06:54:23;98741.84;;;20.53;51.93
56414;BME280;42318;48.452;19.526;2023-05-03T07:01:54;98748.44;;;20.57;51.68
56414;BME280;42318;48.452;19.526;2023-05-03T07:09:25;98741.97;;;20.63;51.86
56414;BME280;42318;48.452;19.526;2023-05-03T07:16:55;98741.47;;;20.66;51.66
56414;BME280;42318;48.452;19.526;2023-05-03T07:24:26;98752.91;;;20.68;51.67
56414;BME280;42318;48.452;19.526;2023-05-03T07:31:58;98740.13;;;20.68;51.64
56414;BME280;42318;48.452;19.526;2023-05-03T07:39:28;98745.88;;;20.72;51.82
56414;BME280;42318;48.452;19.526;2023-05-03T07:47:00;98741.06;;;20.79;51.66
56414;BME280;42318;48.452;19.526;2023-05-03T07:54:31;98760.13;;;20.79;51.77
56414;BME280;42318;48.452;19.526;2023-05-03T08:02:02;98760.13;;;20.79;51.68
56414;BME280;42318;48.452;19.526;2023-05-03T08:09:32;98763.94;;;20.78;51.93
56414;BME280;42318;48.452;19.526;2023-05-03T08:17:03;98776.47;;;20.79;52.08
56414;BME280;42318;48.452;19.526;2023-05-03T08:24:34;98785.47;;;20.80;51.88
56414;BME280;42318;48.452;19.526;2023-05-03T08:32:05;98790.34;;;20.78;51.76
56414;BME280;42318;48.452;19.526;2023-05-03T08:39:36;98790.78;;;20.69;51.68
56414;BME280;42318;48.452;19.526;2023-05-03T08:47:07;98807.75;;;20.77;51.74
56414;BME280;42318;48.452;19.526;2023-05-03T08:54:38;98809.66;;;20.76;51.82
56414;BME280;42318;48.452;19.526;2023-05-03T09:02:10;98822.19;;;20.77;51.67
56414;BME280;42318;48.452;19.526;2023-05-03T09:09:41;98812.94;;;20.78;52.07
56414;BME280;42318;48.452;19.526;2023-05-03T09:17:14;98810.22;;;20.78;51.66
56414;BME280;42318;48.452;19.526;2023-05-03T09:25:04;98818.97;;;20.80;51.89
56414;BME280;42318;48.452;19.526;2023-05-03T09:32:46;98822.50;;;20.81;51.87
56414;BME280;42318;48.452;19.526;2023-05-03T09:40:17;98817.31;;;20.79;51.76
56414;BME280;42318;48.452;19.526;2023-05-03T09:47:49;98815.34;;;20.75;51.67
56414;BME280;42318;48.452;19.526;2023-05-03T09:55:25;98813.44;;;20.75;51.77
56414;BME280;42318;48.452;19.526;2023-05-03T10:02:58;98805.22;;;20.70;51.52
56414;BME280;42318;48.452;19.526;2023-05-03T10:10:31;98796.53;;;20.73;51.74
56414;BME280;42318;48.452;19.526;2023-05-03T10:18:06;98796.03;;;20.76;51.18
56414;BME280;42318;48.452;19.526;2023-05-03T10:25:39;98794.66;;;20.74;51.35
56414;BME280;42318;48.452;19.526;2023-05-03T10:40:42;98798.44;;;20.73;51.44
56414;BME280;42318;48.452;19.526;2023-05-03T10:48:14;98800.59;;;20.70;51.79
56414;BME280;42318;48.452;19.526;2023-05-03T10:56:07;98794.91;;;20.72;52.16
56414;BME280;42318;48.452;19.526;2023-05-03T11:11:35;98799.00;;;20.75;52.15
56414;BME280;42318;48.452;19.526;2023-05-03T11:19:06;98798.19;;;20.74;52.24
56414;BME280;42318;48.452;19.526;2023-05-03T11:26:38;98793.56;;;20.75;52.36
56414;BME280;42318;48.452;19.526;2023-05-03T11:34:11;98797.13;;;20.75;52.30
56414;BME280;42318;48.452;19.526;2023-05-03T11:41:42;98797.38;;;20.74;52.24
56414;BME280;42318;48.452;19.526;2023-05-03T11:49:17;98807.19;;;20.75;52.24
56414;BME280;42318;48.452;19.526;2023-05-03T11:56:48;98800.91;;;20.74;52.20
56414;BME280;42318;48.452;19.526;2023-05-03T12:04:20;98792.75;;;20.74;52.29
56414;BME280;42318;48.452;19.526;2023-05-03T12:11:51;98799.84;;;20.75;52.12
56414;BME280;42318;48.452;19.526;2023-05-03T12:19:29;98797.63;;;20.72;52.51
56414;BME280;42318;48.452;19.526;2023-05-03T12:27:00;98790.03;;;20.74;52.23
56414;BME280;42318;48.452;19.526;2023-05-03T12:34:31;98787.28;;;20.74;52.36
56414;BME280;42318;48.452;19.526;2023-05-03T12:42:02;98775.28;;;20.70;52.35
56414;BME280;42318;48.452;19.526;2023-05-03T12:49:34;98775.31;;;20.75;52.09
56414;BME280;42318;48.452;19.526;2023-05-03T12:57:06;98776.72;;;20.78;52.12
56414;BME280;42318;48.452;19.526;2023-05-03T13:04:37;98770.19;;;20.79;51.77
56414;BME280;42318;48.452;19.526;2023-05-03T13:12:07;98765.09;;;20.82;52.01
56414;BME280;42318;48.452;19.526;2023-05-03T13:19:40;98754.75;;;20.84;52.05
56414;BME280;42318;48.452;19.526;2023-05-03T13:27:11;98753.19;;;20.88;51.67
56414;BME280;42318;48.452;19.526;2023-05-03T13:34:42;98757.03;;;20.92;51.51
56414;BME280;42318;48.452;19.526;2023-05-03T13:42:13;98753.22;;;20.93;51.38
56414;BME280;42318;48.452;19.526;2023-05-03T13:49:44;98746.41;;;20.91;51.66
56414;BME280;42318;48.452;19.526;2023-05-03T13:57:15;98744.75;;;20.90;51.40
56414;BME280;42318;48.452;19.526;2023-05-03T14:04:45;98744.44;;;20.86;51.51
56414;BME280;42318;48.452;19.526;2023-05-03T14:12:16;98751.97;;;20.79;51.52
56414;BME280;42318;48.452;19.526;2023-05-03T14:19:47;98749.19;;;20.74;51.66
56414;BME280;42318;48.452;19.526;2023-05-03T14:27:18;98740.63;;;20.65;51.78
56414;BME280;42318;48.452;19.526;2023-05-03T14:34:51;98761.09;;;20.68;51.96
56414;BME280;42318;48.452;19.526;2023-05-03T14:42:22;98756.16;;;20.65;51.78
56414;BME280;42318;48.452;19.526;2023-05-03T14:49:53;98769.19;;;20.63;51.51
56414;BME280;42318;48.452;19.526;2023-05-03T14:57:24;98769.44;;;20.61;51.64
56414;BME280;42318;48.452;19.526;2023-05-03T15:04:54;98774.31;;;20.59;51.57
56414;BME280;42318;48.452;19.526;2023-05-03T15:12:26;98765.34;;;20.59;51.74
56414;BME280;42318;48.452;19.526;2023-05-03T15:19:56;98769.94;;;20.58;51.85
56414;BME280;42318;48.452;19.526;2023-05-03T15:27:27;98770.78;;;20.59;51.64
56414;BME280;42318;48.452;19.526;2023-05-03T15:34:58;98774.88;;;20.61;51.48
56414;BME280;42318;48.452;19.526;2023-05-03T15:42:29;98777.28;;;20.58;51.81
56414;BME280;42318;48.452;19.526;2023-05-03T15:50:00;98772.94;;;20.57;51.26
56414;BME280;42318;48.452;19.526;2023-05-03T15:57:32;98768.88;;;20.59;51.41
56414;BME280;42318;48.452;19.526;2023-05-03T16:05:03;98757.66;;;20.56;51.73
56414;BME280;42318;48.452;19.526;2023-05-03T16:12:33;98766.97;;;20.60;51.52
56414;BME280;42318;48.452;19.526;2023-05-03T16:20:05;98772.41;;;20.60;51.65
56414;BME280;42318;48.452;19.526;2023-05-03T16:27:39;98760.44;;;20.61;51.37
56414;BME280;42318;48.452;19.526;2023-05-03T16:35:10;98762.09;;;20.62;51.32
56414;BME280;42318;48.452;19.526;2023-05-03T16:42:41;98756.16;;;20.65;51.30
56414;BME280;42318;48.452;19.526;2023-05-03T16:50:12;98746.41;;;20.69;51.34
56414;BME280;42318;48.452;19.526;2023-05-03T16:57:43;98747.78;;;20.72;51.12
56414;BME280;42318;48.452;19.526;2023-05-03T17:05:14;98747.53;;;20.73;51.00
56414;BME280;42318;48.452;19.526;2023-05-03T17:12:48;98753.28;;;20.77;51.23
56414;BME280;42318;48.452;19.526;2023-05-03T17:20:19;98753.03;;;20.78;51.16
56414;BME280;42318;48.452;19.526;2023-05-03T17:27:51;98748.41;;;20.79;50.96
56414;BME280;42318;48.452;19.526;2023-05-03T17:35:22;98756.94;;;20.82;50.93
56414;BME280;42318;48.452;19.526;2023-05-03T17:42:52;98761.53;;;20.82;50.93
56414;BME280;42318;48.452;19.526;2023-05-03T17:50:23;98751.13;;;20.79;51.08
56414;BME280;42318;48.452;19.526;2023-05-03T17:57:54;98756.84;;;20.77;50.97
56414;BME280;42318;48.452;19.526;2023-05-03T18:05:25;98756.78;;;20.72;51.16
56414;BME280;42318;48.452;19.526;2023-05-03T18:12:56;98752.91;;;20.68;51.03
56414;BME280;42318;48.452;19.526;2023-05-03T18:20:27;98765.72;;;20.67;51.31
56414;BME280;42318;48.452;19.526;2023-05-03T18:27:59;98762.41;;;20.65;51.15
56414;BME280;42318;48.452;19.526;2023-05-03T18:35:30;98769.75;;;20.65;51.38
56414;BME280;42318;48.452;19.526;2023-05-03T18:43:01;98775.47;;;20.63;51.31
56414;BME280;42318;48.452;19.526;2023-05-03T18:50:32;98785.53;;;20.63;51.34
56414;BME280;42318;48.452;19.526;2023-05-03T18:58:02;98788.25;;;20.63;51.11
56414;BME280;42318;48.452;19.526;2023-05-03T19:05:34;98789.31;;;20.62;50.80
56414;BME280;42318;48.452;19.526;2023-05-03T19:13:04;98783.81;;;20.57;51.33
56414;BME280;42318;48.452;19.526;2023-05-03T19:20:36;98783.81;;;20.57;51.41
56414;BME280;42318;48.452;19.526;2023-05-03T19:28:07;98790.59;;;20.54;51.52
56414;BME280;42318;48.452;19.526;2023-05-03T19:35:40;98796.03;;;20.54;51.37
56414;BME280;42318;48.452;19.526;2023-05-03T19:43:10;98802.56;;;20.53;51.45
56414;BME280;42318;48.452;19.526;2023-05-03T19:50:42;98810.16;;;20.51;51.36
56414;BME280;42318;48.452;19.526;2023-05-03T19:58:13;98806.59;;;20.51;51.36
56414;BME280;42318;48.452;19.526;2023-05-03T20:05:44;98801.66;;;20.48;51.45
56414;BME280;42318;48.452;19.526;2023-05-03T20:13:16;98809.56;;;20.49;51.21
56414;BME280;42318;48.452;19.526;2023-05-03T20:20:47;98813.63;;;20.47;51.04
56414;BME280;42318;48.452;19.526;2023-05-03T20:28:18;98816.66;;;20.50;51.15
56414;BME280;42318;48.452;19.526;2023-05-03T20:35:48;98811.78;;;20.52;51.24
56414;BME280;42318;48.452;19.526;2023-05-03T20:43:19;98816.41;;;20.52;51.09
56414;BME280;42318;48.452;19.526;2023-05-03T20:50:50;98819.13;;;20.52;51.51
56414;BME280;42318;48.452;19.526;2023-05-03T20:58:21;98820.22;;;20.51;51.29
56414;BME280;42318;48.452;19.526;2023-05-03T21:05:52;98823.19;;;20.49;51.02
56414;BME280;42318;48.452;19.526;2023-05-03T21:13:23;98825.91;;;20.49;51.34
56414;BME280;42318;48.452;19.526;2023-05-03T21:20:54;98823.94;;;20.45;51.17
56414;BME280;42318;48.452;19.526;2023-05-03T21:28:24;98822.63;;;20.47;51.31
56414;BME280;42318;48.452;19.526;2023-05-03T21:35:55;98828.63;;;20.49;50.88
56414;BME280;42318;48.452;19.526;2023-05-03T21:43:26;98833.56;;;20.52;51.20
56414;BME280;42318;48.452;19.526;2023-05-03T21:50:57;98836.63;;;20.56;50.87
56414;BME280;42318;48.452;19.526;2023-05-03T21:58:28;98842.38;;;20.59;50.89
56414;BME280;42318;48.452;19.526;2023-05-03T22:05:59;98842.94;;;20.61;51.05
56414;BME280;42318;48.452;19.526;2023-05-03T22:13:29;98845.16;;;20.64;50.80
56414;BME280;42318;48.452;19.526;2023-05-03T22:21:01;98832.63;;;20.63;50.87
56414;BME280;42318;48.452;19.526;2023-05-03T22:28:32;98838.66;;;20.65;50.70
56414;BME280;42318;48.452;19.526;2023-05-03T22:36:02;98842.78;;;20.68;50.83
56414;BME280;42318;48.452;19.526;2023-05-03T22:43:33;98841.94;;;20.67;50.62
56414;BME280;42318;48.452;19.526;2023-05-03T22:51:04;98832.94;;;20.67;50.58
56414;BME280;42318;48.452;19.526;2023-05-03T22:58:35;98837.56;;;20.66;50.70
56414;BME280;42318;48.452;19.526;2023-05-03T23:06:06;98827.75;;;20.65;50.52
56414;BME280;42318;48.452;19.526;2023-05-03T23:13:37;98825.78;;;20.61;50.73
56414;BME280;42318;48.452;19.526;2023-05-03T23:21:08;98813.50;;;20.58;50.75
56414;BME280;42318;48.452;19.526;2023-05-03T23:28:39;98812.13;;;20.56;51.06
56414;BME280;42318;48.452;19.526;2023-05-03T23:36:10;98806.91;;;20.54;50.98
56414;BME280;42318;48.452;19.526;2023-05-03T23:43:41;98801.97;;;20.51;51.36
56414;BME280;42318;48.452;19.526;2023-05-03T23:51:11;98804.97;;;20.50;50.95
56414;BME280;42318;48.452;19.526;2023-05-03T23:58:42;98792.94;;;20.46;51.08
